createdAt,value
2018-12-20T00:00:01.872Z,8.03
2018-12-20T00:02:34.099Z,6.50
2018-12-20T00:05:08.411Z,6.43
2018-12-20T00:07:42.413Z,5.43
2018-12-20T00:10:16.779Z,7.47
2018-12-20T00:12:49.548Z,5.60
2018-12-20T00:15:27.059Z,5.53
2018-12-20T00:18:01.156Z,6.00
2018-12-20T00:20:35.163Z,7.23
2018-12-20T00:23:09.782Z,6.57
2018-12-20T00:25:43.913Z,7.43
2018-12-20T00:28:16.388Z,6.60
2018-12-20T00:30:50.988Z,5.20
2018-12-20T00:33:28.359Z,6.43
2018-12-20T00:36:09.041Z,6.90
2018-12-20T00:38:43.564Z,6.20
2018-12-20T00:41:17.971Z,7.97
2018-12-20T00:43:52.050Z,6.60
2018-12-20T00:46:25.987Z,5.53
2018-12-20T00:49:04.309Z,6.77
2018-12-20T00:51:38.429Z,5.63
2018-12-20T00:57:25.681Z,6.77
2018-12-20T01:00:00.583Z,6.70
2018-12-20T01:02:34.773Z,7.57
2018-12-20T01:05:08.887Z,5.97
2018-12-20T01:07:43.885Z,5.60
2018-12-20T01:10:17.832Z,6.63
2018-12-20T01:12:52.276Z,7.70
2018-12-20T01:15:24.802Z,5.63
2018-12-20T01:17:58.918Z,5.57
2018-12-20T01:20:33.108Z,5.83
2018-12-20T01:23:09.182Z,6.07
2018-12-20T01:25:47.192Z,5.30
2018-12-20T01:28:18.555Z,6.60
2018-12-20T01:30:52.840Z,6.40
2018-12-20T01:33:27.164Z,6.47
2018-12-20T01:36:01.983Z,6.40
2018-12-20T01:38:36.255Z,7.27
2018-12-20T01:41:10.318Z,5.93
2018-12-20T01:43:45.036Z,4.53
2018-12-20T01:46:17.849Z,7.07
2018-12-20T01:49:07.272Z,7.03
2018-12-20T01:51:42.013Z,6.43
2018-12-20T01:54:16.195Z,5.63
2018-12-20T01:56:50.418Z,5.67
2018-12-20T01:59:24.627Z,5.00
2018-12-20T02:01:58.902Z,3.87
2018-12-20T02:04:46.533Z,6.07
2018-12-20T02:07:24.687Z,5.37
2018-12-20T02:09:58.829Z,5.37
2018-12-20T02:12:46.108Z,4.33
2018-12-20T02:15:21.408Z,6.03
2018-12-20T02:17:56.036Z,5.03
2018-12-20T02:20:29.879Z,4.63
2018-12-20T02:23:04.412Z,4.47
2018-12-20T02:25:38.395Z,4.50
2018-12-20T02:28:16.775Z,5.07
2018-12-20T02:30:51.268Z,5.27
2018-12-20T02:33:26.053Z,3.63
2018-12-20T02:36:00.177Z,4.03
2018-12-20T02:38:34.148Z,3.77
2018-12-20T02:41:08.479Z,4.17
2018-12-20T02:43:42.469Z,5.63
2018-12-20T02:46:17.044Z,5.20
2018-12-20T02:48:56.005Z,3.97
2018-12-20T02:51:30.860Z,2.70
2018-12-20T02:54:04.868Z,4.00
2018-12-20T02:56:36.420Z,3.80
2018-12-20T02:59:17.791Z,2.63
2018-12-20T03:01:52.388Z,3.20
2018-12-20T03:04:26.535Z,4.33
2018-12-20T03:07:00.607Z,2.70
2018-12-20T03:09:34.728Z,3.60
2018-12-20T03:12:09.278Z,2.10
2018-12-20T03:14:42.234Z,2.70
2018-12-20T03:17:16.461Z,3.00
2018-12-20T03:19:50.736Z,2.30
2018-12-20T03:22:24.893Z,3.30
2018-12-20T03:24:59.140Z,2.60
2018-12-20T03:27:31.283Z,1.63
2018-12-20T03:30:15.203Z,2.27
2018-12-20T03:32:51.137Z,4.43
2018-12-20T03:35:25.573Z,2.03
2018-12-20T03:37:59.425Z,2.07
2018-12-20T03:40:33.932Z,2.87
2018-12-20T03:43:08.796Z,2.13
2018-12-20T03:45:43.650Z,1.93
2018-12-20T03:48:17.841Z,2.97
2018-12-20T03:50:50.805Z,2.80
2018-12-20T03:53:25.031Z,1.77
2018-12-20T03:56:03.296Z,2.87
2018-12-20T03:58:37.257Z,3.13
2018-12-20T04:01:16.693Z,2.53
2018-12-20T04:03:50.820Z,3.70
2018-12-20T04:06:22.966Z,3.17
2018-12-20T04:08:57.037Z,2.27
2018-12-20T04:11:31.268Z,3.27
2018-12-20T04:17:11.450Z,2.50
2018-12-20T04:19:45.483Z,4.03
2018-12-20T04:22:19.805Z,3.07
2018-12-20T04:24:54.226Z,3.73
2018-12-20T04:27:28.247Z,2.60
2018-12-20T04:30:02.322Z,3.13
2018-12-20T04:32:36.715Z,3.73
2018-12-20T04:35:32.554Z,3.10
2018-12-20T04:38:06.970Z,3.30
2018-12-20T04:40:40.983Z,3.23
2018-12-20T04:43:15.142Z,3.30
2018-12-20T04:45:50.332Z,2.60
2018-12-20T04:51:24.252Z,3.73
2018-12-20T04:53:58.701Z,3.20
2018-12-20T04:56:33.190Z,3.50
2018-12-20T04:59:07.295Z,3.20
2018-12-20T05:01:41.329Z,2.97
2018-12-20T05:04:15.299Z,3.43
2018-12-20T05:06:51.676Z,3.63
2018-12-20T05:09:25.905Z,3.33
2018-12-20T05:12:02.118Z,3.00
2018-12-20T05:14:36.501Z,4.63
2018-12-20T05:17:10.439Z,3.87
2018-12-20T05:19:44.595Z,4.70
2018-12-20T05:22:18.954Z,3.47
2018-12-20T05:24:52.973Z,4.63
2018-12-20T05:27:27.270Z,3.97
2018-12-20T05:30:01.896Z,3.93
2018-12-20T05:32:34.969Z,3.30
2018-12-20T05:35:09.088Z,4.30
2018-12-20T05:37:51.685Z,3.93
2018-12-20T05:40:25.987Z,3.90
2018-12-20T05:43:00.095Z,3.80
2018-12-20T05:45:34.258Z,4.33
2018-12-20T05:48:08.297Z,4.03
2018-12-20T05:50:42.545Z,5.60
2018-12-20T05:53:16.985Z,3.90
2018-12-20T05:56:04.492Z,3.80
2018-12-20T05:58:37.317Z,5.03
2018-12-20T06:01:11.381Z,4.50
2018-12-20T06:03:45.478Z,5.60
2018-12-20T06:06:19.409Z,5.13
2018-12-20T06:08:53.606Z,4.37
2018-12-20T06:11:27.838Z,4.97
2018-12-20T06:14:02.233Z,4.53
2018-12-20T06:16:36.372Z,4.97
2018-12-20T06:19:10.492Z,4.80
2018-12-20T06:21:47.562Z,3.63
2018-12-20T06:24:21.719Z,4.53
2018-12-20T06:26:55.916Z,4.67
2018-12-20T06:29:30.074Z,6.00
2018-12-20T06:32:04.191Z,4.50
2018-12-20T06:37:37.821Z,5.17
2018-12-20T06:40:11.931Z,4.10
2018-12-20T06:42:46.300Z,5.33
2018-12-20T06:45:20.580Z,7.03
2018-12-20T06:47:55.089Z,6.30
2018-12-20T06:50:29.221Z,4.57
2018-12-20T06:53:03.139Z,3.73
2018-12-20T06:55:37.220Z,5.60
2018-12-20T06:58:11.470Z,4.10
2018-12-20T07:00:49.599Z,4.13
2018-12-20T07:03:23.923Z,6.37
2018-12-20T07:05:58.168Z,4.77
2018-12-20T07:08:32.173Z,5.13
2018-12-20T07:11:06.425Z,5.50
2018-12-20T07:13:40.539Z,6.43
2018-12-20T07:16:14.693Z,5.50
2018-12-20T07:18:48.911Z,5.20
2018-12-20T07:21:23.040Z,5.53
2018-12-20T07:23:57.352Z,6.17
2018-12-20T07:26:31.468Z,4.87
2018-12-20T07:29:05.761Z,6.20
2018-12-20T07:31:40.280Z,5.27
2018-12-20T07:34:16.208Z,5.20
2018-12-20T07:36:50.401Z,5.30
2018-12-20T07:39:24.407Z,6.77
2018-12-20T07:41:58.587Z,8.07
2018-12-20T07:44:32.754Z,8.07
2018-12-20T07:47:06.789Z,6.43
2018-12-20T07:49:41.026Z,6.50
2018-12-20T07:52:15.162Z,5.30
2018-12-20T07:54:49.263Z,6.73
2018-12-20T07:57:24.917Z,5.37
2018-12-20T07:59:59.705Z,4.10
2018-12-20T08:02:33.759Z,7.40
2018-12-20T08:05:08.025Z,6.93
2018-12-20T08:07:42.770Z,4.50
2018-12-20T08:10:17.068Z,5.23
2018-12-20T08:12:51.040Z,6.60
2018-12-20T08:15:25.313Z,6.77
2018-12-20T08:17:59.362Z,6.80
2018-12-20T08:20:33.364Z,6.33
2018-12-20T08:23:07.508Z,5.40
2018-12-20T08:25:41.849Z,5.63
2018-12-20T08:28:13.521Z,6.67
2018-12-20T08:30:47.588Z,6.10
2018-12-20T08:33:21.755Z,7.20
2018-12-20T08:35:56.061Z,7.83
2018-12-20T08:38:30.438Z,9.63
2018-12-20T08:41:04.848Z,6.83
2018-12-20T08:43:39.043Z,5.80
2018-12-20T08:46:13.198Z,8.73
2018-12-20T08:48:47.302Z,6.07
2018-12-20T08:51:21.568Z,5.17
2018-12-20T08:53:53.305Z,6.93
2018-12-20T08:56:25.404Z,5.30
2018-12-20T08:58:59.984Z,7.10
2018-12-20T09:01:34.152Z,7.43
2018-12-20T09:04:08.475Z,4.47
2018-12-20T09:06:42.687Z,8.47
2018-12-20T09:09:17.048Z,6.10
2018-12-20T09:11:51.000Z,6.53
2018-12-20T09:14:25.284Z,5.70
2018-12-20T09:17:03.158Z,9.07
2018-12-20T09:19:35.711Z,6.10
2018-12-20T09:22:08.767Z,8.70
2018-12-20T09:24:42.681Z,8.50
2018-12-20T09:27:16.992Z,6.83
2018-12-20T09:29:51.355Z,6.23
2018-12-20T09:32:25.680Z,6.87
2018-12-20T09:34:59.896Z,5.60
2018-12-20T09:37:33.968Z,7.03
2018-12-20T09:40:08.209Z,8.93
2018-12-20T09:42:42.305Z,6.60
2018-12-20T09:45:16.381Z,9.10
2018-12-20T09:47:53.462Z,6.60
2018-12-20T09:50:28.015Z,6.27
2018-12-20T09:53:10.796Z,7.37
2018-12-20T09:55:42.698Z,7.60
2018-12-20T09:58:16.944Z,5.23
2018-12-20T10:00:48.716Z,5.83
2018-12-20T10:21:17.160Z,6.47
2018-12-20T10:23:51.485Z,6.93
2018-12-20T10:26:25.582Z,7.43
2018-12-20T10:28:59.744Z,5.63
2018-12-20T10:31:33.935Z,6.27
2018-12-20T10:34:08.272Z,6.07
2018-12-20T10:36:49.840Z,4.73
2018-12-20T10:39:21.646Z,7.60
2018-12-20T10:41:55.750Z,8.10
2018-12-20T10:44:29.989Z,6.73
2018-12-20T10:47:09.701Z,5.40
2018-12-20T10:49:41.700Z,8.57
2018-12-20T10:52:13.691Z,9.23
2018-12-20T10:54:44.909Z,7.80
2018-12-20T10:57:19.024Z,6.07
2018-12-20T10:59:50.828Z,5.67
2018-12-20T11:02:30.323Z,4.20
2018-12-20T11:05:07.100Z,5.47
2018-12-20T11:07:47.148Z,4.20
2018-12-20T11:10:27.163Z,6.13
2018-12-20T11:13:03.876Z,4.07
2018-12-20T11:15:37.384Z,5.20
2018-12-20T11:18:11.746Z,5.07
2018-12-20T11:20:46.047Z,5.00
2018-12-20T11:23:20.280Z,5.50
2018-12-20T11:25:54.358Z,6.50
2018-12-20T11:28:28.844Z,6.80
2018-12-20T11:31:03.069Z,5.70
2018-12-20T11:33:37.159Z,5.10
2018-12-20T11:36:11.447Z,4.40
2018-12-20T11:38:47.052Z,5.63
2018-12-20T11:41:21.433Z,6.57
2018-12-20T11:43:58.634Z,4.90
2018-12-20T11:46:32.633Z,5.93
2018-12-20T11:49:07.124Z,5.67
2018-12-20T11:51:42.103Z,6.77
2018-12-20T11:54:16.330Z,7.40
2018-12-20T11:56:50.416Z,5.13
2018-12-20T11:59:24.607Z,7.43
2018-12-20T12:01:58.871Z,4.77
2018-12-20T12:04:33.099Z,4.67
2018-12-20T12:07:07.512Z,3.77
2018-12-20T12:09:41.669Z,6.50
2018-12-20T12:12:15.645Z,6.73
2018-12-20T12:14:49.889Z,6.40
2018-12-20T12:17:24.286Z,6.50
2018-12-20T12:19:58.474Z,6.23
2018-12-20T12:22:32.543Z,7.40
2018-12-20T12:25:06.882Z,5.23
2018-12-20T12:27:41.036Z,5.57
2018-12-20T12:30:15.231Z,5.20
2018-12-20T12:32:47.327Z,5.67
2018-12-20T12:35:21.952Z,7.47
2018-12-20T12:37:56.225Z,5.27
2018-12-20T12:40:30.313Z,7.10
2018-12-20T13:00:59.905Z,7.43
2018-12-20T13:03:34.163Z,6.30
2018-12-20T13:06:08.412Z,8.90
2018-12-20T13:08:42.517Z,7.53
2018-12-20T13:11:16.817Z,8.47
2018-12-20T13:13:50.884Z,9.10
2018-12-20T13:16:25.216Z,9.53
2018-12-20T13:18:59.700Z,6.53
2018-12-20T13:21:30.844Z,5.97
2018-12-20T13:24:05.335Z,8.67
2018-12-20T13:26:39.388Z,5.17
2018-12-20T13:29:13.577Z,7.53
2018-12-20T13:31:47.796Z,8.93
2018-12-20T13:34:21.991Z,9.23
2018-12-20T13:36:56.229Z,7.17
2018-12-20T13:39:30.160Z,6.77
2018-12-20T13:42:04.345Z,7.23
2018-12-20T13:44:38.530Z,7.53
2018-12-20T13:47:12.859Z,6.20
2018-12-20T13:49:46.860Z,6.87
2018-12-20T13:52:20.952Z,5.00
2018-12-20T13:54:55.303Z,6.70
2018-12-20T13:57:29.756Z,5.60
2018-12-20T14:00:06.887Z,8.03
2018-12-20T14:02:41.145Z,7.53
2018-12-20T14:05:15.064Z,7.07
2018-12-20T14:07:49.752Z,4.37
2018-12-20T14:10:23.914Z,6.40
2018-12-20T14:12:58.000Z,6.47
2018-12-20T14:15:32.350Z,8.20
2018-12-20T14:18:06.649Z,7.40
2018-12-20T14:20:40.605Z,6.77
2018-12-20T14:23:15.057Z,7.13
2018-12-20T14:25:49.477Z,7.27
2018-12-20T14:28:23.774Z,9.50
2018-12-20T14:30:58.011Z,9.27
2018-12-20T14:33:32.872Z,6.17
2018-12-20T14:36:07.261Z,7.63
2018-12-20T14:38:41.284Z,6.20
2018-12-20T14:41:15.409Z,7.83
2018-12-20T14:43:49.406Z,6.83
2018-12-20T14:46:23.683Z,10.60
2018-12-20T14:48:57.998Z,10.10
2018-12-20T14:51:32.100Z,7.83
2018-12-20T14:54:06.335Z,7.27
2018-12-20T14:56:40.702Z,6.97
2018-12-20T14:59:14.556Z,7.33
2018-12-20T15:01:46.382Z,6.50
2018-12-20T15:04:17.846Z,9.00
2018-12-20T15:06:49.595Z,5.43
2018-12-20T15:09:23.842Z,4.70
2018-12-20T15:11:57.802Z,7.33
2018-12-20T15:14:31.932Z,6.80
2018-12-20T15:17:03.660Z,8.10
2018-12-20T15:19:37.823Z,7.30
2018-12-20T15:22:12.271Z,6.13
2018-12-20T15:24:46.363Z,7.30
2018-12-20T15:27:24.211Z,9.93
2018-12-20T15:29:58.485Z,5.90
2018-12-20T15:32:32.836Z,8.03
2018-12-20T15:35:06.985Z,8.70
2018-12-20T15:37:41.343Z,10.40
2018-12-20T15:40:12.836Z,8.77
2018-12-20T15:42:48.598Z,8.03
2018-12-20T15:45:22.882Z,7.90
2018-12-20T15:47:57.076Z,6.63
2018-12-20T15:50:31.348Z,8.50
2018-12-20T15:53:03.114Z,7.93
2018-12-20T15:55:37.183Z,7.43
2018-12-20T15:58:11.374Z,7.13
2018-12-20T16:00:45.528Z,7.27
2018-12-20T16:03:19.688Z,7.67
2018-12-20T16:05:53.975Z,10.77
2018-12-20T16:08:28.132Z,6.53
2018-12-20T16:10:59.652Z,7.03
2018-12-20T16:13:33.993Z,9.73
2018-12-20T16:16:08.688Z,7.10
2018-12-20T16:18:43.152Z,9.07
2018-12-20T16:21:17.070Z,8.23
2018-12-20T16:23:51.163Z,10.67
2018-12-20T16:26:25.302Z,7.37
2018-12-20T16:28:59.364Z,8.77
2018-12-20T16:31:33.807Z,6.37
2018-12-20T16:34:07.818Z,7.50
2018-12-20T16:36:42.131Z,8.67
2018-12-20T16:39:16.332Z,8.67
2018-12-20T16:41:50.731Z,8.43
2018-12-20T16:44:25.104Z,7.57
2018-12-20T16:46:58.985Z,7.47
2018-12-20T16:49:33.399Z,8.00
2018-12-20T16:52:11.471Z,5.80
2018-12-20T16:54:45.712Z,9.77
2018-12-20T16:57:20.032Z,8.43
2018-12-20T16:59:54.314Z,9.60
2018-12-20T17:02:28.598Z,6.80
2018-12-20T17:05:02.413Z,10.87
2018-12-20T17:07:36.500Z,8.67
2018-12-20T17:10:10.945Z,8.40
2018-12-20T17:12:45.277Z,8.20
2018-12-20T17:15:19.221Z,6.53
2018-12-20T17:17:53.424Z,8.03
2018-12-20T17:20:27.661Z,10.93
2018-12-20T17:23:02.092Z,6.93
2018-12-20T17:25:36.457Z,10.27
2018-12-20T17:28:10.798Z,8.93
2018-12-20T17:30:44.878Z,8.93
2018-12-20T17:33:21.265Z,10.53
2018-12-20T17:35:55.420Z,7.07
2018-12-20T17:38:29.816Z,7.33
2018-12-20T17:41:08.188Z,9.40
2018-12-20T17:43:42.414Z,8.10
2018-12-20T17:46:16.434Z,11.50
2018-12-20T17:48:50.918Z,9.00
2018-12-20T17:51:29.132Z,11.60
2018-12-20T17:54:00.693Z,8.83
2018-12-20T17:56:34.655Z,10.07
2018-12-20T17:59:08.863Z,8.57
2018-12-20T18:01:40.320Z,8.63
2018-12-20T18:04:19.260Z,8.77
2018-12-20T18:06:55.517Z,9.07
2018-12-20T18:09:29.548Z,9.93
2018-12-20T18:12:03.914Z,8.73
2018-12-20T18:14:38.006Z,9.20
2018-12-20T18:17:12.273Z,7.03
2018-12-20T18:19:46.667Z,12.77
2018-12-20T18:22:21.039Z,9.30
2018-12-20T18:24:55.245Z,8.27
2018-12-20T18:27:29.286Z,8.47
2018-12-20T18:30:09.495Z,10.10
2018-12-20T18:32:44.074Z,11.67
2018-12-20T18:35:18.670Z,8.03
2018-12-20T18:38:03.441Z,9.77
2018-12-20T18:40:37.691Z,8.57
2018-12-20T18:43:11.953Z,11.27
2018-12-20T18:45:45.914Z,11.07
2018-12-20T18:48:20.260Z,9.93
2018-12-20T18:50:54.450Z,9.40
2018-12-20T18:53:28.662Z,11.03
2018-12-20T18:56:03.100Z,9.37
2018-12-20T18:58:37.554Z,10.83
2018-12-20T19:01:11.734Z,9.67
2018-12-20T19:03:53.188Z,7.77
2018-12-20T19:06:27.588Z,13.13
2018-12-20T19:09:01.647Z,11.17
2018-12-20T19:11:49.402Z,9.90
2018-12-20T19:14:23.974Z,10.40
2018-12-20T19:17:08.992Z,6.93
2018-12-20T19:19:45.240Z,7.20
2018-12-20T19:22:17.190Z,10.30
2018-12-20T19:24:51.145Z,9.67
2018-12-20T19:27:31.616Z,10.47
2018-12-20T19:30:30.356Z,8.93
2018-12-20T19:33:04.712Z,7.97
2018-12-20T19:35:39.291Z,9.43
2018-12-20T19:38:20.422Z,12.60
2018-12-20T19:40:49.883Z,8.80
2018-12-20T19:43:24.057Z,7.57
2018-12-20T19:49:02.184Z,11.73
2018-12-20T19:51:36.704Z,10.60
2018-12-20T19:54:10.639Z,7.27
2018-12-20T19:57:00.207Z,13.50
2018-12-20T19:59:39.113Z,8.20
2018-12-20T20:02:13.380Z,11.13
2018-12-20T20:04:47.889Z,10.33
2018-12-20T20:07:23.939Z,9.67
2018-12-20T20:09:58.082Z,10.73
2018-12-20T20:12:32.201Z,11.30
2018-12-20T20:15:16.046Z,10.97
2018-12-20T20:17:44.680Z,11.43
2018-12-20T20:23:18.764Z,9.73
2018-12-20T20:25:53.141Z,9.83
2018-12-20T20:28:27.488Z,13.57
2018-12-20T20:31:01.522Z,11.27
2018-12-20T20:33:35.658Z,9.80
2018-12-20T20:36:09.825Z,10.60
2018-12-20T20:38:44.029Z,10.83
2018-12-20T20:41:18.375Z,10.70
2018-12-20T20:43:52.951Z,8.90
2018-12-20T20:46:27.582Z,10.20
2018-12-20T20:49:02.012Z,9.20
2018-12-20T20:51:41.144Z,8.60
2018-12-20T20:54:15.339Z,9.73
2018-12-20T20:56:49.634Z,7.70
2018-12-20T20:59:37.276Z,10.47
2018-12-20T21:02:15.937Z,10.43
2018-12-20T21:04:55.260Z,9.07
2018-12-20T21:07:29.572Z,9.73
2018-12-20T21:10:17.315Z,11.53
2018-12-20T21:12:49.748Z,12.10
2018-12-20T21:15:24.504Z,11.20
2018-12-20T21:17:58.695Z,9.87
2018-12-20T21:20:32.805Z,10.73
2018-12-20T21:23:06.824Z,10.00
2018-12-20T21:25:56.123Z,10.80
2018-12-20T21:28:28.898Z,9.93
2018-12-20T21:31:03.153Z,8.43
2018-12-20T21:33:37.211Z,10.40
2018-12-20T21:36:11.484Z,11.90
2018-12-20T21:38:45.891Z,9.03
2018-12-20T21:41:17.937Z,10.90
2018-12-20T21:43:52.365Z,11.70
2018-12-20T21:46:25.219Z,11.23
2018-12-20T21:48:59.722Z,10.20
2018-12-20T21:51:33.459Z,7.57
2018-12-20T21:54:08.104Z,11.03
2018-12-20T21:56:49.092Z,8.77
2018-12-20T21:59:32.321Z,7.87
2018-12-20T22:02:04.131Z,10.70
2018-12-20T22:04:43.382Z,6.60
2018-12-20T22:07:17.443Z,10.17
2018-12-20T22:09:51.488Z,9.27
2018-12-20T22:12:23.604Z,7.70
2018-12-20T22:14:57.684Z,9.90
2018-12-20T22:17:45.113Z,10.97
2018-12-20T22:20:17.969Z,8.73
2018-12-20T22:22:52.250Z,9.93
2018-12-20T22:25:26.449Z,9.70
2018-12-20T22:28:00.696Z,9.43
2018-12-20T22:30:34.807Z,7.07
2018-12-20T22:33:09.204Z,10.60
2018-12-20T22:35:43.454Z,10.20
2018-12-20T22:38:30.897Z,8.93
2018-12-20T22:41:05.629Z,10.67
2018-12-20T22:43:41.821Z,11.93
2018-12-20T22:46:16.322Z,8.27
2018-12-20T22:48:50.490Z,7.73
2018-12-20T22:51:24.569Z,7.00
2018-12-20T22:53:58.793Z,8.83
2018-12-20T22:56:32.809Z,9.37
2018-12-20T22:59:07.614Z,8.73
2018-12-20T23:01:42.213Z,10.67
2018-12-20T23:07:15.959Z,9.57
2018-12-20T23:09:50.125Z,10.87
2018-12-20T23:12:24.566Z,7.57
2018-12-20T23:15:02.690Z,10.37
2018-12-20T23:17:36.932Z,12.90
2018-12-20T23:20:11.158Z,10.07
2018-12-20T23:22:45.293Z,9.33
2018-12-20T23:25:19.156Z,7.43
2018-12-20T23:27:53.221Z,8.40
2018-12-20T23:30:27.392Z,13.63
2018-12-20T23:33:01.747Z,9.53
2018-12-20T23:35:49.494Z,8.63
2018-12-20T23:38:23.391Z,10.50
2018-12-20T23:40:57.543Z,6.93
2018-12-20T23:43:31.732Z,7.50
2018-12-20T23:46:05.831Z,8.53
2018-12-20T23:48:41.613Z,10.33
2018-12-20T23:51:16.096Z,8.73
2018-12-20T23:53:50.397Z,6.57
2018-12-20T23:56:25.021Z,11.83
2018-12-20T23:58:59.189Z,12.23
